Megah Delapan — VRGA4 — position and weather

sailwx.info

Track history (hours):
 
Tides and Currents Weather Stations Pressure Air Temp Water Temp Dewpoint Dewpoint Depression Visibility Wind Speed Wind Dir Waves Ship Positions

Megah Delapan

Last reported at 2014-Aug-16 23:09 UTC. Time now 2014-Aug-23 19:22 UTC.
Position N 30°05' E 123°18'.

Length 120 m; draft 8.7 m.

Type: Cargo ship. MMSI: 477639100.

Date/timePositionNaut miles runAvg speedWind from/ knotsBaromVisibWave heightAir tempDewpointWater temp
2014-Aug-16 23:09N 30°05' E 123°18'712.1
2014-Aug-16 22:32N 30°12' E 123°15'1412.3
2014-Aug-16 21:24N 30°25' E 123°09'2211.7
2014-Aug-16 19:33N 30°45' E 122°60'1111.4
2014-Aug-16 18:33N 30°55' E 122°55'6410.7
2014-Aug-16 12:33N 31°19' E 121°45'1211.9
2014-Aug-16 11:34N 31°24' E 121°33'1111.1
2014-Aug-16 10:34N 31°31' E 121°23'2410.7
2014-Aug-16 08:21N 31°46' E 121°02'8 8.8
2014-Aug-16 07:29N 31°50' E 120°54'1212.8
2014-Aug-16 06:33N 32°01' E 120°47'1312.7
2014-Aug-16 05:33N 32°03' E 120°32'1211.6
2014-Aug-16 04:33N 31°58' E 120°20'1211.9
2014-Aug-16 03:33N 31°57' E 120°06'1413.8
2014-Aug-16 02:33N 32°07' E 119°55'  
2014-Aug-12 18:28N 32°19' E 119°49'5 0.1
2014-Aug-11 04:22N 32°15' E 119°53'6 6.0
2014-Aug-11 03:20N 32°09' E 119°54'0 0.0
2014-Aug-11 02:26N 32°09' E 119°54'0 0.0
2014-Aug-11 01:28N 32°09' E 119°54'0 0.0
2014-Aug-11 00:32N 32°09' E 119°54'0 0.0
2014-Aug-10 23:32N 32°09' E 119°54'0 0.0
2014-Aug-10 22:31N 32°09' E 119°54'0 0.0
2014-Aug-10 21:26N 32°09' E 119°54'0 0.1
2014-Aug-10 20:20N 32°09' E 119°54'0 0.1
2014-Aug-10 19:19N 32°09' E 119°54'0 0.1
2014-Aug-10 18:25N 32°09' E 119°54'0 0.0
2014-Aug-10 17:07N 32°09' E 119°54'0 0.0
2014-Aug-10 16:07N 32°09' E 119°54'0 0.0
2014-Aug-10 15:19N 32°09' E 119°54'0 0.0
2014-Aug-10 14:31N 32°09' E 119°54'0 0.0
2014-Aug-10 13:25N 32°09' E 119°54'0 0.0
2014-Aug-10 12:20N 32°09' E 119°54'2 2.8
2014-Aug-10 11:33N 32°07' E 119°55'1110.9
2014-Aug-10 10:33N 31°58' E 120°02'1010.0
2014-Aug-10 09:34N 31°56' E 120°14'1211.9
2014-Aug-10 08:34N 32°03' E 120°26'1110.8
2014-Aug-10 07:34N 32°00' E 120°38'1211.7
2014-Aug-10 06:34N 31°58' E 120°52'1312.7
2014-Aug-10 05:31N 31°47' E 121°00'1414.2
2014-Aug-10 04:32N 31°39' E 121°14'1313.5
2014-Aug-10 03:33N 31°30' E 121°25'10 9.5
2014-Aug-10 02:33N 31°24' E 121°34'9 8.8
2014-Aug-10 01:32N 31°19' E 121°43'4610.5
2014-Aug-09 21:08N 30°60' E 122°32'6 6.9
2014-Aug-09 20:17N 31°01' E 122°39'  
Track history (hours):
 
Tides and Currents Weather Stations Pressure Air Temp Water Temp Dewpoint Dewpoint Depression Visibility Wind Speed Wind Dir Waves Ship Positions

Megah Delapan

Last reported at 2014-Aug-16 23:09 UTC. Time now 2014-Aug-23 19:22 UTC.
Position N 30°05' E 123°18'.

Length 120 m; draft 8.7 m.

Type: Cargo ship. MMSI: 477639100.

Date/timePositionNaut miles runAvg speedWind from/ knotsBaromVisibWave heightAir tempDewpointWater temp
2014-Aug-16 23:09N 30°05' E 123°18'712.1
2014-Aug-16 22:32N 30°12' E 123°15'1412.3
2014-Aug-16 21:24N 30°25' E 123°09'2211.7
2014-Aug-16 19:33N 30°45' E 122°60'1111.4
2014-Aug-16 18:33N 30°55' E 122°55'6410.7
2014-Aug-16 12:33N 31°19' E 121°45'1211.9
2014-Aug-16 11:34N 31°24' E 121°33'1111.1
2014-Aug-16 10:34N 31°31' E 121°23'2410.7
2014-Aug-16 08:21N 31°46' E 121°02'8 8.8
2014-Aug-16 07:29N 31°50' E 120°54'1212.8
2014-Aug-16 06:33N 32°01' E 120°47'1312.7
2014-Aug-16 05:33N 32°03' E 120°32'1211.6
2014-Aug-16 04:33N 31°58' E 120°20'1211.9
2014-Aug-16 03:33N 31°57' E 120°06'1413.8
2014-Aug-16 02:33N 32°07' E 119°55'  
2014-Aug-12 18:28N 32°19' E 119°49'5 0.1
2014-Aug-11 04:22N 32°15' E 119°53'6 6.0
2014-Aug-11 03:20N 32°09' E 119°54'0 0.0
2014-Aug-11 02:26N 32°09' E 119°54'0 0.0
2014-Aug-11 01:28N 32°09' E 119°54'0 0.0
2014-Aug-11 00:32N 32°09' E 119°54'0 0.0
2014-Aug-10 23:32N 32°09' E 119°54'0 0.0
2014-Aug-10 22:31N 32°09' E 119°54'0 0.0
2014-Aug-10 21:26N 32°09' E 119°54'0 0.1
2014-Aug-10 20:20N 32°09' E 119°54'0 0.1
2014-Aug-10 19:19N 32°09' E 119°54'0 0.1
2014-Aug-10 18:25N 32°09' E 119°54'0 0.0
2014-Aug-10 17:07N 32°09' E 119°54'0 0.0
2014-Aug-10 16:07N 32°09' E 119°54'0 0.0
2014-Aug-10 15:19N 32°09' E 119°54'0 0.0
2014-Aug-10 14:31N 32°09' E 119°54'0 0.0
2014-Aug-10 13:25N 32°09' E 119°54'0 0.0
2014-Aug-10 12:20N 32°09' E 119°54'2 2.8
2014-Aug-10 11:33N 32°07' E 119°55'1110.9
2014-Aug-10 10:33N 31°58' E 120°02'1010.0
2014-Aug-10 09:34N 31°56' E 120°14'1211.9
2014-Aug-10 08:34N 32°03' E 120°26'1110.8
2014-Aug-10 07:34N 32°00' E 120°38'1211.7
2014-Aug-10 06:34N 31°58' E 120°52'1312.7
2014-Aug-10 05:31N 31°47' E 121°00'1414.2
2014-Aug-10 04:32N 31°39' E 121°14'1313.5
2014-Aug-10 03:33N 31°30' E 121°25'10 9.5
2014-Aug-10 02:33N 31°24' E 121°34'9 8.8
2014-Aug-10 01:32N 31°19' E 121°43'4610.5
2014-Aug-09 21:08N 30°60' E 122°32'6 6.9
2014-Aug-09 20:17N 31°01' E 122°39'  

Dump ship's entire track history